Time;durP1;ratioP1;P1;durP2;ratioP2;P2;SDS_P1;SDS_P2;PMS_P1;PMS_P2;Temp;Humidity;BMP_temperature;BMP_pressure;BME280_temperature;BME280_humidity;BME280_pressure;Samples;Min_cycle;Max_cycle;Signal;HPM_P1;HPM_P2
2023/11/30 00:00:28;;;;;;;7.60;3.65;;;-0.20;99.90;;;;;;4914785;29;20060;-65
2023/11/30 00:02:53;;;;;;;6.20;3.85;;;-0.20;99.90;;;;;;4916130;29;20036;-65
2023/11/30 00:05:19;;;;;;;6.60;3.70;;;-0.30;99.90;;;;;;4916023;29;20470;-65
2023/11/30 00:07:45;;;;;;;6.53;3.92;;;;;;;;;;4914955;29;20064;-66
2023/11/30 00:10:11;;;;;;;9.13;4.68;;;;;;;;;;4915634;29;20126;-65
2023/11/30 00:12:37;;;;;;;6.78;4.32;;;;;;;;;;4914485;29;20422;-65
2023/11/30 00:15:04;;;;;;;6.07;3.80;;;;;;;;;;4915889;29;20028;-65
2023/11/30 00:17:30;;;;;;;6.25;4.35;;;;;;;;;;4914293;29;20040;-66
2023/11/30 00:19:56;;;;;;;8.45;4.43;;;;;;;;;;4914744;29;20024;-65
2023/11/30 00:22:22;;;;;;;10.95;5.38;;;;;;;;;;4914781;29;20031;-66
2023/11/30 00:24:48;;;;;;;10.65;6.03;;;;;;;;;;4914926;29;20183;-66
2023/11/30 00:27:14;;;;;;;11.20;5.53;;;;;;;;;;4915536;29;20020;-66
2023/11/30 00:29:40;;;;;;;9.75;6.10;;;;;;;;;;4916727;29;20024;-65
2023/11/30 00:32:06;;;;;;;11.20;6.63;;;;;;;;;;4916671;29;20067;-65
2023/11/30 00:34:32;;;;;;;12.55;6.78;;;;;;;;;;4916912;29;20035;-66
2023/11/30 00:36:58;;;;;;;10.15;6.43;;;;;;;;;;4915921;29;20048;-65
2023/11/30 00:39:24;;;;;;;12.70;6.68;;;;;;;;;;4915417;29;20103;-66
2023/11/30 00:41:50;;;;;;;13.40;6.82;;;;;;;;;;4914391;29;20512;-66
2023/11/30 00:44:18;;;;;;;11.40;5.90;;;;;;;;;;4915297;29;20039;-63
2023/11/30 00:46:44;;;;;;;12.52;6.32;;;;;;;;;;4914427;29;20075;-66
2023/11/30 00:49:10;;;;;;;13.35;6.38;;;;;;;;;;4915191;29;20454;-66
2023/11/30 00:51:36;;;;;;;11.80;6.10;;;;;;;;;;4909803;29;20034;-66
2023/11/30 00:54:02;;;;;;;14.23;6.78;;;;;;;;;;4914630;29;20450;-66
2023/11/30 00:56:28;;;;;;;10.70;6.15;;;;;;;;;;4909612;29;20099;-66
2023/11/30 00:58:54;;;;;;;11.52;6.25;;;;;;;;;;4915039;29;20024;-66
2023/11/30 01:01:20;;;;;;;11.63;6.35;;;;;;;;;;4913725;29;20024;-66
2023/11/30 01:03:47;;;;;;;10.32;6.25;;;;;;;;;;4914197;29;20028;-66
2023/11/30 01:06:13;;;;;;;9.00;5.35;;;;;;;;;;4914482;29;20511;-66
2023/11/30 01:08:39;;;;;;;12.60;6.50;;;;;;;;;;4914308;29;20151;-66
2023/11/30 01:11:05;;;;;;;7.68;4.90;;;;;;;;;;4914526;29;20107;-66
2023/11/30 01:13:31;;;;;;;9.40;5.75;;;;;;;;;;4914031;29;20068;-66
2023/11/30 01:15:57;;;;;;;8.68;5.55;;;;;;;;;;4914239;29;20367;-66
2023/11/30 01:18:23;;;;;;;11.48;5.75;;;;;;;;;;4913301;29;20020;-66
2023/11/30 01:20:49;;;;;;;9.73;6.30;;;;;;;;;;4913968;29;20028;-66
2023/11/30 01:23:15;;;;;;;8.07;5.30;;;;;;;;;;4914882;29;20308;-66
2023/11/30 01:25:41;;;;;;;8.48;5.35;;;;;;;;;;4913552;29;20207;-66
2023/11/30 01:28:07;;;;;;;9.13;5.68;;;;;;;;;;4914319;29;20024;-66
2023/11/30 01:30:33;;;;;;;9.95;6.03;;;;;;;;;;4896437;29;20039;-66
2023/11/30 01:32:59;;;;;;;10.75;5.22;;;;;;;;;;4914384;29;20046;-66
2023/11/30 01:35:28;;;;;;;10.95;6.10;;;;;;;;;;4913131;29;21544;-67
2023/11/30 01:37:55;;;;;;;10.48;5.80;;;;;;;;;;4913472;29;20374;-66
2023/11/30 01:40:21;;;;;;;8.95;5.53;;;;;;;;;;4914312;29;20039;-66
2023/11/30 01:42:47;;;;;;;13.13;6.35;;;;;;;;;;4912709;29;20028;-66
2023/11/30 01:45:13;;;;;;;9.30;5.82;;;;;;;;;;4913892;29;20024;-66
2023/11/30 01:47:39;;;;;;;12.65;6.22;;;;;;;;;;4912980;29;20104;-66
2023/11/30 01:50:05;;;;;;;7.65;5.60;;;;;;;;;;4914447;29;20107;-65
2023/11/30 01:52:31;;;;;;;9.18;5.78;;;;;;;;;;4912538;29;20043;-66
2023/11/30 01:54:58;;;;;;;13.45;6.43;;;;;;;;;;4914188;29;20027;-66
2023/11/30 01:57:24;;;;;;;13.30;6.78;;;;;;;;;;4912816;29;20024;-66
2023/11/30 01:59:50;;;;;;;14.10;6.82;;;;;;;;;;4914306;29;20076;-66
2023/11/30 02:02:16;;;;;;;9.65;5.68;;;;;;;;;;4913084;29;20474;-66
2023/11/30 02:04:42;;;;;;;9.07;5.90;;;;;;;;;;4911287;29;20454;-66
2023/11/30 02:07:09;;;;;;;8.45;5.22;;;;;;;;;;4913337;29;20032;-66
2023/11/30 02:09:35;;;;;;;9.38;6.05;;;;;;;;;;4910056;29;20059;-66
2023/11/30 02:12:01;;;;;;;9.85;5.45;;;;;;;;;;4912999;29;20103;-66
2023/11/30 02:14:27;;;;;;;7.90;5.30;;;;;;;;;;4912985;29;20028;-66
2023/11/30 02:16:53;;;;;;;9.77;5.70;;;;;;;;;;4913528;29;20434;-66
2023/11/30 02:19:19;;;;;;;7.88;5.07;;;;;;;;;;4913096;29;20040;-65
2023/11/30 02:21:51;;;;;;;9.77;5.85;;;;;;;;;;4912624;29;20022;-65
2023/11/30 02:24:17;;;;;;;9.57;5.95;;;-1.10;99.90;;;;;;4913717;29;20028;-65
2023/11/30 02:26:43;;;;;;;14.88;6.80;;;-1.20;99.90;;;;;;4912519;29;20020;-65
2023/11/30 02:29:09;;;;;;;10.77;6.40;;;-1.40;99.90;;;;;;4913711;29;20382;-65
2023/11/30 02:31:34;;;;;;;10.10;5.32;;;-1.50;99.90;;;;;;4912429;29;20413;-66
2023/11/30 02:34:00;;;;;;;11.70;5.93;;;-1.50;99.90;;;;;;4913919;29;20111;-65
2023/11/30 02:36:26;;;;;;;11.27;5.75;;;-1.50;99.90;;;;;;4912762;29;20099;-66
2023/11/30 02:38:51;;;;;;;10.80;6.32;;;-1.40;99.90;;;;;;4913758;29;20099;-65
2023/11/30 02:41:17;;;;;;;10.93;6.00;;;-1.30;99.90;;;;;;4913627;29;20084;-65
2023/11/30 02:43:43;;;;;;;12.20;5.80;;;-1.20;99.90;;;;;;4914123;29;20024;-65
2023/11/30 02:46:09;;;;;;;11.35;5.95;;;-1.20;99.90;;;;;;4916629;29;20031;-66
2023/11/30 02:48:37;;;;;;;8.80;5.40;;;-1.30;99.90;;;;;;4916291;29;20032;-66
2023/11/30 02:51:02;;;;;;;10.68;5.07;;;-1.20;99.90;;;;;;4916958;29;20031;-66
2023/11/30 02:53:28;;;;;;;10.13;5.28;;;-1.20;99.90;;;;;;4916803;29;20048;-65
2023/11/30 02:55:54;;;;;;;9.80;5.35;;;-1.30;99.90;;;;;;4916698;29;20034;-65
2023/11/30 02:58:19;;;;;;;10.20;5.07;;;-1.30;99.90;;;;;;4917063;29;20039;-65
2023/11/30 03:00:47;;;;;;;6.97;4.43;;;-1.40;99.90;;;;;;4915874;29;20024;-65
2023/11/30 03:03:13;;;;;;;7.43;4.85;;;-1.40;99.90;;;;;;4916612;29;20028;-65
2023/11/30 03:05:38;;;;;;;8.02;5.20;;;-1.50;99.90;;;;;;4915872;29;20039;-65
2023/11/30 03:08:04;;;;;;;8.60;5.43;;;-1.50;99.90;;;;;;4917016;29;20028;-65
2023/11/30 03:10:29;;;;;;;8.02;5.47;;;-1.50;99.90;;;;;;4915490;29;20115;-65
2023/11/30 03:12:55;;;;;;;10.88;5.00;;;-1.50;99.90;;;;;;4916810;29;20462;-65
2023/11/30 03:15:23;;;;;;;8.02;5.15;;;-1.50;99.90;;;;;;4916653;29;20088;-65
2023/11/30 03:17:48;;;;;;;8.82;5.45;;;-1.50;99.90;;;;;;4914916;29;20036;-65
2023/11/30 03:20:15;;;;;;;9.40;5.50;;;-1.50;99.90;;;;;;4916411;29;20497;-65
2023/11/30 03:22:40;;;;;;;9.52;5.10;;;-1.50;99.90;;;;;;4915469;29;20496;-65
2023/11/30 03:25:06;;;;;;;9.98;5.93;;;-1.50;99.90;;;;;;4916785;29;20024;-65
2023/11/30 03:27:32;;;;;;;7.93;5.10;;;-1.60;99.90;;;;;;4915293;29;20035;-65
2023/11/30 03:29:57;;;;;;;8.95;5.45;;;-1.60;99.90;;;;;;4916652;29;20032;-66
2023/11/30 03:32:23;;;;;;;7.18;4.53;;;-1.50;99.90;;;;;;4915414;29;20039;-66
2023/11/30 03:34:48;;;;;;;11.30;5.45;;;-1.50;99.90;;;;;;4898806;29;20036;-66
2023/11/30 03:37:14;;;;;;;7.97;5.13;;;-1.50;99.90;;;;;;4915719;29;20088;-66
2023/11/30 03:39:39;;;;;;;11.60;5.72;;;-1.40;99.90;;;;;;4915090;29;20450;-66
2023/11/30 03:42:05;;;;;;;14.05;5.80;;;-1.40;99.90;;;;;;4915875;29;20032;-66
2023/11/30 03:44:31;;;;;;;7.70;5.32;;;-1.40;99.90;;;;;;4915451;29;20540;-65
2023/11/30 03:46:56;;;;;;;10.43;5.22;;;-1.40;99.90;;;;;;4915997;29;20479;-65
2023/11/30 03:49:22;;;;;;;9.43;5.05;;;-1.30;99.90;;;;;;4915471;29;20039;-66
2023/11/30 03:51:47;;;;;;;8.10;5.32;;;-1.30;99.90;;;;;;4914480;29;20035;-64
2023/11/30 03:54:13;;;;;;;8.85;5.40;;;-1.30;99.90;;;;;;4915554;29;20470;-66
2023/11/30 03:56:38;;;;;;;7.47;5.22;;;-1.30;99.90;;;;;;4914272;29;20020;-65
2023/11/30 03:59:04;;;;;;;9.07;5.15;;;-1.30;99.90;;;;;;4916002;29;20343;-65
2023/11/30 04:01:29;;;;;;;7.85;4.93;;;-1.30;99.90;;;;;;4914505;29;20055;-65
2023/11/30 04:03:55;;;;;;;11.15;5.30;;;-1.30;99.90;;;;;;4915773;29;20028;-65
2023/11/30 04:06:22;;;;;;;10.55;5.20;;;-1.30;99.90;;;;;;4915406;29;20020;-65
2023/11/30 04:08:51;;;;;;;8.32;5.30;;;-1.30;99.90;;;;;;4915009;29;20548;-65
2023/11/30 04:11:17;;;;;;;7.47;5.20;;;-1.30;99.90;;;;;;4915179;29;20032;-65
2023/11/30 04:13:47;;;;;;;9.15;5.57;;;-1.30;99.90;;;;;;4915005;29;20266;-65
2023/11/30 04:16:16;;;;;;;9.35;5.47;;;-1.20;99.90;;;;;;4915266;29;20036;-65
2023/11/30 04:18:43;;;;;;;7.43;5.45;;;-1.10;99.90;;;;;;4915128;29;20039;-65
2023/11/30 04:21:08;;;;;;;8.68;5.43;;;-1.10;99.90;;;;;;4915014;29;20167;-65
2023/11/30 04:23:34;;;;;;;8.30;5.05;;;-1.10;99.90;;;;;;4915074;29;20131;-65
2023/11/30 04:26:00;;;;;;;8.65;5.28;;;-1.10;99.90;;;;;;4914565;29;20034;-64
2023/11/30 04:28:25;;;;;;;11.52;4.78;;;-1.10;99.90;;;;;;4914427;29;20024;-65
2023/11/30 04:30:52;;;;;;;8.73;4.97;;;-1.20;99.90;;;;;;4915546;29;20102;-65
2023/11/30 04:33:18;;;;;;;7.93;4.78;;;-1.20;99.90;;;;;;4915467;29;20036;-65
2023/11/30 04:35:43;;;;;;;8.50;5.20;;;-1.20;99.90;;;;;;4914165;29;20059;-65
2023/11/30 04:38:09;;;;;;;8.27;5.30;;;-1.20;99.90;;;;;;4914642;29;20454;-64
2023/11/30 04:40:34;;;;;;;8.93;5.65;;;-1.20;99.90;;;;;;4914268;29;20055;-65
2023/11/30 04:43:00;;;;;;;9.52;5.15;;;-1.20;99.90;;;;;;4915551;29;20055;-64
2023/11/30 04:45:26;;;;;;;12.13;5.50;;;-1.20;99.90;;;;;;4914448;29;20088;-65
2023/11/30 04:47:51;;;;;;;8.77;5.57;;;-1.20;99.90;;;;;;4915068;29;20032;-66
2023/11/30 04:50:17;;;;;;;14.23;7.78;;;-1.20;99.90;;;;;;4914329;29;20079;-66
2023/11/30 04:52:43;;;;;;;10.93;7.45;;;-1.20;99.90;;;;;;4913762;29;20039;-66
2023/11/30 04:55:08;;;;;;;10.13;6.15;;;-1.10;99.90;;;;;;4915355;29;20152;-66
2023/11/30 04:57:34;;;;;;;11.43;6.15;;;-1.10;99.90;;;;;;4913997;29;20088;-66
2023/11/30 04:59:59;;;;;;;8.73;5.78;;;-1.10;99.90;;;;;;4914557;29;20032;-64
2023/11/30 05:02:25;;;;;;;9.85;6.15;;;-1.10;99.90;;;;;;4913531;29;20032;-67
2023/11/30 05:04:50;;;;;;;7.60;5.20;;;-1.00;99.90;;;;;;4915311;29;20031;-65
2023/11/30 05:07:16;;;;;;;10.85;5.80;;;-1.10;99.90;;;;;;4914333;29;20028;-65
2023/11/30 05:09:42;;;;;;;8.73;5.72;;;-1.10;99.90;;;;;;4913880;29;20158;-66
2023/11/30 05:12:07;;;;;;;9.13;5.97;;;-1.20;99.90;;;;;;4914324;29;20040;-66
2023/11/30 05:14:33;;;;;;;10.00;5.65;;;-1.20;99.90;;;;;;4914128;29;20028;-66
2023/11/30 05:16:58;;;;;;;9.13;5.18;;;-1.30;99.90;;;;;;4914248;29;20869;-65
2023/11/30 05:19:24;;;;;;;10.00;5.30;;;-1.40;99.90;;;;;;4914331;29;20039;-64
2023/11/30 05:21:50;;;;;;;9.27;5.57;;;-1.40;99.90;;;;;;4913639;29;20354;-65
2023/11/30 05:24:17;;;;;;;9.57;6.57;;;-1.50;99.90;;;;;;4914372;29;20032;-65
2023/11/30 05:26:42;;;;;;;11.93;6.70;;;-1.50;99.90;;;;;;4913200;29;20099;-65
2023/11/30 05:29:08;;;;;;;11.57;6.88;;;-1.60;99.90;;;;;;4914417;29;20111;-65
2023/11/30 05:31:34;;;;;;;10.77;7.15;;;-1.60;99.90;;;;;;4913377;29;20039;-65
2023/11/30 05:33:59;;;;;;;12.15;7.28;;;-1.50;99.90;;;;;;4913944;29;20382;-65
2023/11/30 05:36:25;;;;;;;11.35;7.32;;;-1.50;99.90;;;;;;4913243;29;20031;-65
2023/11/30 05:38:51;;;;;;;9.98;6.45;;;-1.40;99.90;;;;;;4913683;29;20056;-65
2023/11/30 05:41:17;;;;;;;12.95;6.93;;;-1.40;99.90;;;;;;4913921;29;20034;-64
2023/11/30 05:43:42;;;;;;;11.88;7.07;;;-1.40;99.90;;;;;;4913703;29;20115;-66
2023/11/30 05:46:08;;;;;;;11.50;6.80;;;-1.30;99.90;;;;;;4913038;29;20078;-66
2023/11/30 05:48:33;;;;;;;11.52;7.13;;;-1.30;99.90;;;;;;4913572;29;20028;-66
2023/11/30 05:50:59;;;;;;;9.32;6.45;;;-1.20;99.90;;;;;;4912826;29;20036;-64
2023/11/30 05:53:25;;;;;;;12.93;7.18;;;-1.20;99.90;;;;;;4913679;29;20043;-64
2023/11/30 05:55:51;;;;;;;13.48;7.72;;;-1.10;99.90;;;;;;4913565;29;20466;-64
2023/11/30 05:58:16;;;;;;;15.80;8.95;;;-1.10;99.90;;;;;;4914237;29;20044;-64
2023/11/30 06:00:42;;;;;;;15.80;8.57;;;-1.00;99.90;;;;;;4912992;29;20748;-65
2023/11/30 06:03:08;;;;;;;12.85;9.27;;;-1.00;99.90;;;;;;4914047;29;20028;-64
2023/11/30 06:05:34;;;;;;;14.85;8.85;;;-1.10;99.90;;;;;;4913171;29;20436;-65
2023/11/30 06:07:59;;;;;;;17.60;8.32;;;-1.00;99.90;;;;;;4913486;29;20032;-65
2023/11/30 06:10:25;;;;;;;12.93;8.38;;;-1.00;99.90;;;;;;4913694;29;20023;-64
2023/11/30 06:12:50;;;;;;;14.27;8.98;;;-1.10;99.90;;;;;;4913409;29;20040;-66
2023/11/30 06:15:16;;;;;;;11.65;7.70;;;-1.10;99.90;;;;;;4914199;29;20028;-65
2023/11/30 06:17:41;;;;;;;12.50;8.90;;;-1.10;99.90;;;;;;4912134;29;20043;-64
2023/11/30 06:20:10;;;;;;;12.55;7.82;;;-1.00;99.90;;;;;;4917391;29;20024;-65
2023/11/30 06:22:36;;;;;;;15.98;9.15;;;-1.00;99.90;;;;;;4916178;29;20123;-65
2023/11/30 06:25:01;;;;;;;13.98;9.25;;;-1.00;99.90;;;;;;4915739;29;20107;-65
2023/11/30 06:27:27;;;;;;;14.70;8.85;;;-1.00;99.90;;;;;;4916109;29;20124;-65
2023/11/30 06:29:52;;;;;;;13.35;8.70;;;-1.00;99.90;;;;;;4917791;29;20106;-65
2023/11/30 06:32:20;;;;;;;13.95;8.85;;;-1.10;99.90;;;;;;4916634;29;21397;-65
2023/11/30 06:34:45;;;;;;;15.10;8.63;;;-1.10;99.90;;;;;;4915747;29;20032;-65
2023/11/30 06:37:11;;;;;;;14.40;8.55;;;-1.10;99.90;;;;;;4916632;29;20087;-65
2023/11/30 06:39:41;;;;;;;16.02;8.85;;;-1.00;99.90;;;;;;4917012;29;20030;-67
2023/11/30 06:42:06;;;;;;;13.45;8.23;;;-1.10;99.90;;;;;;4916348;29;20470;-65
2023/11/30 06:44:32;;;;;;;12.68;7.93;;;-1.00;99.90;;;;;;4916711;29;20104;-63
2023/11/30 06:46:57;;;;;;;13.10;8.32;;;-1.10;99.90;;;;;;4916726;29;20397;-63
2023/11/30 06:49:23;;;;;;;11.90;8.32;;;-1.20;99.90;;;;;;4917163;29;20028;-64
2023/11/30 06:51:49;;;;;;;16.17;9.40;;;-1.20;99.90;;;;;;4915883;29;20036;-64
2023/11/30 06:54:14;;;;;;;14.55;8.48;;;-1.20;99.90;;;;;;4917272;29;20036;-68
2023/11/30 06:56:40;;;;;;;13.15;9.02;;;-1.30;99.90;;;;;;4916214;29;20028;-63
2023/11/30 06:59:05;;;;;;;12.35;8.30;;;-1.30;99.90;;;;;;4916780;29;20017;-70
2023/11/30 07:01:31;;;;;;;12.80;8.05;;;-1.30;99.90;;;;;;4916468;29;20036;-65
2023/11/30 07:03:56;;;;;;;15.02;8.88;;;-1.30;99.90;;;;;;4916796;29;20039;-64
2023/11/30 07:06:22;;;;;;;14.93;8.98;;;-1.30;99.90;;;;;;4916328;29;20035;-64
2023/11/30 07:08:48;;;;;;;12.07;8.00;;;-1.30;99.90;;;;;;4916829;29;20470;-66
2023/11/30 07:11:17;;;;;;;15.35;8.65;;;-1.30;99.90;;;;;;4916350;29;20371;-65
2023/11/30 07:13:42;;;;;;;13.20;8.70;;;-1.30;99.90;;;;;;4916474;29;20040;-65
2023/11/30 07:16:09;;;;;;;14.55;8.88;;;-1.30;99.90;;;;;;4915965;29;20129;-66
2023/11/30 07:18:34;;;;;;;13.75;8.90;;;-1.20;99.90;;;;;;4915763;29;20039;-66
2023/11/30 07:21:00;;;;;;;15.13;8.48;;;-1.20;99.90;;;;;;4916485;29;20040;-67
2023/11/30 07:23:26;;;;;;;11.73;8.07;;;-1.20;99.90;;;;;;4920076;29;20032;-70
2023/11/30 07:25:51;;;;;;;15.65;8.75;;;-1.10;99.90;;;;;;4919687;29;20107;-67
2023/11/30 07:28:17;;;;;;;14.88;8.35;;;-1.00;99.90;;;;;;4920301;29;20052;-66
2023/11/30 07:30:43;;;;;;;14.95;9.20;;;-1.10;99.90;;;;;;4915528;29;20609;-67
2023/11/30 07:33:09;;;;;;;12.82;8.18;;;-1.00;99.90;;;;;;4915511;29;20035;-66
2023/11/30 07:35:38;;;;;;;15.65;9.05;;;-1.00;99.90;;;;;;4920065;29;20055;-67
2023/11/30 07:38:05;;;;;;;16.97;9.10;;;-1.00;99.90;;;;;;4915138;29;20048;-67
2023/11/30 07:40:32;;;;;;;15.45;8.68;;;-0.90;99.90;;;;;;4916114;29;20035;-67
2023/11/30 07:42:58;;;;;;;20.20;9.02;;;-0.90;99.90;;;;;;4916451;29;20032;-66
2023/11/30 07:45:24;;;;;;;14.80;8.80;;;-0.80;99.90;;;;;;4915843;29;20040;-65
2023/11/30 07:47:50;;;;;;;18.48;9.35;;;-0.70;99.90;;;;;;4915755;29;20021;-66
2023/11/30 07:50:16;;;;;;;13.98;8.75;;;-0.60;99.90;;;;;;4911906;29;20426;-68
2023/11/30 07:52:42;;;;;;;14.63;9.80;;;-0.50;99.90;;;;;;4914513;29;20639;-66
2023/11/30 07:55:08;;;;;;;18.45;9.27;;;-0.40;99.90;;;;;;4915960;29;20438;-65
2023/11/30 07:57:33;;;;;;;13.65;9.40;;;-0.40;99.90;;;;;;4914981;29;20035;-65
2023/11/30 07:59:59;;;;;;;16.15;9.38;;;-0.30;99.90;;;;;;4915628;29;20020;-66
2023/11/30 08:02:25;;;;;;;17.35;9.30;;;-0.20;99.90;;;;;;4915023;29;20039;-66
2023/11/30 08:04:50;;;;;;;16.70;8.70;;;-0.20;99.90;;;;;;4915517;29;20088;-66
2023/11/30 08:07:16;;;;;;;14.63;8.65;;;-0.10;99.90;;;;;;4914842;29;20039;-66
2023/11/30 08:09:41;;;;;;;15.10;9.50;;;-0.10;99.90;;;;;;4914843;29;20060;-66
2023/11/30 08:12:07;;;;;;;14.82;9.07;;;0.10;99.90;;;;;;4915240;29;20047;-66
2023/11/30 08:14:33;;;;;;;13.80;8.98;;;0.10;99.90;;;;;;4918768;29;20038;-66
2023/11/30 08:16:59;;;;;;;14.60;8.68;;;0.30;99.90;;;;;;4922202;29;20028;-67
2023/11/30 08:19:24;;;;;;;14.88;9.57;;;0.40;99.90;;;;;;4913488;29;20469;-66
2023/11/30 08:21:50;;;;;;;14.38;8.43;;;0.40;99.90;;;;;;4914479;29;20043;-67
2023/11/30 08:24:16;;;;;;;14.57;7.82;;;0.50;99.90;;;;;;4914657;29;20164;-67
2023/11/30 08:26:41;;;;;;;15.25;8.93;;;0.50;99.90;;;;;;4914232;29;20033;-66
2023/11/30 08:29:08;;;;;;;14.25;9.02;;;0.50;99.90;;;;;;4915194;29;20522;-66
2023/11/30 08:31:36;;;;;;;14.43;8.20;;;0.60;99.90;;;;;;4914072;29;20059;-67
2023/11/30 08:34:02;;;;;;;15.73;9.07;;;0.60;99.90;;;;;;4914492;29;20071;-65
2023/11/30 08:36:28;;;;;;;15.13;8.73;;;0.70;99.90;;;;;;4922872;29;20040;-66
2023/11/30 08:38:53;;;;;;;13.50;8.35;;;0.80;99.90;;;;;;4915074;29;20050;-65
2023/11/30 08:41:20;;;;;;;14.57;8.43;;;0.80;99.90;;;;;;4896379;29;20036;-67
2023/11/30 08:43:46;;;;;;;16.63;8.82;;;0.90;99.90;;;;;;4914460;29;20043;-67
2023/11/30 08:46:12;;;;;;;14.82;9.05;;;1.00;99.90;;;;;;4914061;29;20063;-66
2023/11/30 08:48:37;;;;;;;18.45;9.32;;;1.10;99.90;;;;;;4914285;29;20055;-66
2023/11/30 08:51:03;;;;;;;14.07;9.73;;;1.20;99.90;;;;;;4910416;29;20083;-66
2023/11/30 08:53:29;;;;;;;20.88;9.60;;;1.30;99.90;;;;;;4913976;29;20662;-66
2023/11/30 08:55:55;;;;;;;17.65;8.82;;;;;;;;;;4912009;29;20119;-66
2023/11/30 08:58:21;;;;;;;17.67;10.07;;;;;;;;;;4918731;29;20048;-66
2023/11/30 09:00:47;;;;;;;17.02;9.48;;;;;;;;;;4913529;29;20024;-66
2023/11/30 09:03:13;;;;;;;18.92;10.18;;;;;;;;;;4914106;29;20592;-66
2023/11/30 09:05:40;;;;;;;19.67;9.90;;;;;;;;;;4912549;29;20088;-66
2023/11/30 09:08:06;;;;;;;16.65;10.20;;;;;;;;;;4914512;29;20036;-67
2023/11/30 09:10:32;;;;;;;25.52;10.90;;;;;;;;;;4913206;29;20025;-66
2023/11/30 09:12:58;;;;;;;21.25;10.57;;;;;;;;;;4914294;29;20390;-66
2023/11/30 09:15:24;;;;;;;15.60;10.05;;;;;;;;;;4913541;29;20040;-66
2023/11/30 09:17:50;;;;;;;16.92;11.15;;;;;;;;;;4913841;29;20056;-66
2023/11/30 09:20:19;;;;;;;15.98;9.20;;;;;;;;;;4914310;29;20032;-66
2023/11/30 09:22:45;;;;;;;24.27;11.30;;;;;;;;;;4913321;29;20103;-66
2023/11/30 09:25:11;;;;;;;17.10;10.20;;;;;;;;;;4913818;29;20100;-65
2023/11/30 09:27:37;;;;;;;16.85;9.45;;;;;;;;;;4912960;29;20061;-65
2023/11/30 09:30:04;;;;;;;15.27;9.05;;;;;;;;;;4913825;29;20032;-66
2023/11/30 09:32:30;;;;;;;15.85;8.98;;;;;;;;;;4912122;29;20024;-66
2023/11/30 09:34:56;;;;;;;16.73;9.98;;;;;;;;;;4914859;29;20052;-66
2023/11/30 09:37:22;;;;;;;17.45;10.20;;;;;;;;;;4914062;29;20510;-67
2023/11/30 09:39:49;;;;;;;16.13;9.93;;;2.30;99.90;;;;;;4913576;29;20028;-67
2023/11/30 09:42:16;;;;;;;20.50;10.23;;;2.30;99.90;;;;;;4913484;29;20471;-66
2023/11/30 09:44:43;;;;;;;19.00;11.25;;;2.40;99.90;;;;;;4913378;29;20127;-66
2023/11/30 09:47:10;;;;;;;17.70;9.85;;;2.50;99.90;;;;;;4913319;29;20028;-67
2023/11/30 09:49:39;;;;;;;15.63;9.50;;;2.50;99.90;;;;;;4913105;29;20398;-66
2023/11/30 09:52:05;;;;;;;16.65;8.85;;;2.40;99.90;;;;;;4913214;29;20043;-67
2023/11/30 09:54:31;;;;;;;18.80;9.45;;;2.50;99.90;;;;;;4913302;29;20071;-66
2023/11/30 09:56:57;;;;;;;16.42;9.88;;;2.40;99.90;;;;;;4913114;29;20068;-66
2023/11/30 09:59:26;;;;;;;17.15;8.93;;;2.40;99.90;;;;;;4913476;29;20070;-67
2023/11/30 10:01:55;;;;;;;15.40;9.45;;;2.40;99.90;;;;;;4913127;29;20092;-66
2023/11/30 10:04:25;;;;;;;17.10;9.57;;;2.30;99.90;;;;;;4913956;29;20039;-66
2023/11/30 10:06:54;;;;;;;16.27;9.82;;;2.40;99.90;;;;;;4912859;29;20028;-66
2023/11/30 10:09:20;;;;;;;13.73;8.38;;;2.40;99.90;;;;;;4913668;29;20032;-67
2023/11/30 10:11:45;;;;;;;15.55;10.02;;;2.40;99.90;;;;;;4912320;29;20045;-66
2023/11/30 10:14:11;;;;;;;16.95;10.00;;;2.30;99.90;;;;;;4913453;29;20040;-66
2023/11/30 10:16:36;;;;;;;19.67;9.55;;;2.50;99.90;;;;;;4912631;29;20108;-66
2023/11/30 10:19:03;;;;;;;15.95;9.60;;;2.50;99.90;;;;;;4911394;29;20060;-66
2023/11/30 10:21:29;;;;;;;12.82;9.13;;;2.60;99.90;;;;;;4912020;29;20401;-66
2023/11/30 10:23:57;;;;;;;18.17;10.02;;;2.60;99.90;;;;;;4913512;29;20091;-67
2023/11/30 10:26:23;;;;;;;14.23;9.05;;;2.70;99.90;;;;;;4911816;29;20485;-66
2023/11/30 10:28:52;;;;;;;14.88;9.02;;;2.80;99.90;;;;;;4913605;29;20039;-67
2023/11/30 10:31:20;;;;;;;15.52;9.85;;;2.80;99.90;;;;;;4913045;29;20052;-66
2023/11/30 10:33:54;;;;;;;17.83;8.93;;;2.90;99.90;;;;;;4922286;29;20039;-66
2023/11/30 10:36:21;;;;;;;20.63;9.73;;;3.10;99.90;;;;;;4918258;29;20048;-67
2023/11/30 10:38:51;;;;;;;17.80;9.88;;;3.10;99.90;;;;;;4911990;29;20139;-66
2023/11/30 10:41:26;;;;;;;16.75;9.77;;;3.40;99.90;;;;;;4912583;29;20032;-67
2023/11/30 10:43:55;;;;;;;15.52;9.75;;;3.40;99.90;;;;;;4913315;29;20040;-67
2023/11/30 10:46:23;;;;;;;18.92;10.18;;;3.50;99.90;;;;;;4912991;29;20084;-67
2023/11/30 10:48:50;;;;;;;16.50;9.75;;;3.50;99.90;;;;;;4913105;29;20029;-67
2023/11/30 10:51:17;;;;;;;15.73;9.70;;;3.50;99.90;;;;;;4908602;29;20091;-66
2023/11/30 10:53:58;;;;;;;14.70;9.55;;;3.60;99.90;;;;;;4912668;29;20463;-66
2023/11/30 10:56:26;;;;;;;14.38;8.68;;;3.70;99.90;;;;;;4912021;29;20040;-67
2023/11/30 10:58:52;;;;;;;17.42;9.68;;;3.70;99.90;;;;;;4915216;29;20028;-67
2023/11/30 11:01:18;;;;;;;17.98;9.52;;;3.70;99.90;;;;;;4895949;29;20087;-66
2023/11/30 11:03:45;;;;;;;18.33;9.55;;;3.80;99.90;;;;;;4912586;29;20036;-66
2023/11/30 11:06:11;;;;;;;19.50;9.77;;;4.10;99.90;;;;;;4915911;29;20536;-66
2023/11/30 11:08:37;;;;;;;25.90;12.32;;;4.00;99.90;;;;;;4916036;29;20217;-66
2023/11/30 11:11:07;;;;;;;13.20;8.60;;;4.10;99.90;;;;;;4916613;29;20355;-65
2023/11/30 11:13:34;;;;;;;13.95;8.68;;;4.20;99.90;;;;;;4915025;29;20059;-65
2023/11/30 11:16:02;;;;;;;12.75;9.05;;;4.30;99.90;;;;;;4916046;29;20485;-65
2023/11/30 11:18:32;;;;;;;13.77;8.63;;;4.50;99.90;;;;;;4915142;29;20111;-65
2023/11/30 11:20:59;;;;;;;12.85;8.73;;;4.60;99.90;;;;;;4899470;29;20024;-66
2023/11/30 11:23:34;;;;;;;13.05;8.32;;;4.70;99.90;;;;;;4916046;29;20044;-66
2023/11/30 11:26:02;;;;;;;15.43;8.10;;;4.70;99.90;;;;;;4916108;29;20035;-66
2023/11/30 11:28:28;;;;;;;11.07;7.78;;;4.70;99.90;;;;;;4909826;29;20051;-65
2023/11/30 11:30:54;;;;;;;10.95;8.50;;;4.70;99.90;;;;;;4915904;29;20035;-66
2023/11/30 11:33:25;;;;;;;13.30;8.73;;;4.70;99.90;;;;;;4916330;29;20390;-66
2023/11/30 11:35:51;;;;;;;11.48;7.78;;;4.70;99.90;;;;;;4916001;29;20064;-65
2023/11/30 11:38:18;;;;;;;14.30;8.23;;;4.70;99.90;;;;;;4915281;29;20524;-65
2023/11/30 11:40:44;;;;;;;12.77;8.50;;;4.60;99.90;;;;;;4914898;29;20550;-65
2023/11/30 11:43:10;;;;;;;11.68;7.60;;;4.60;99.90;;;;;;4916381;29;20146;-65
2023/11/30 11:45:36;;;;;;;11.90;8.35;;;4.50;99.90;;;;;;4914044;29;20092;-65
2023/11/30 11:48:02;;;;;;;11.48;7.65;;;4.40;99.90;;;;;;4915045;29;20036;-65
2023/11/30 11:50:28;;;;;;;11.13;7.68;;;4.40;99.90;;;;;;4914838;29;20287;-65
2023/11/30 11:53:01;;;;;;;11.80;7.85;;;4.50;99.90;;;;;;4915959;29;20094;-65
2023/11/30 11:55:27;;;;;;;10.20;7.60;;;4.40;99.90;;;;;;4914917;29;20151;-66
2023/11/30 11:57:53;;;;;;;10.50;7.68;;;4.40;99.90;;;;;;4914167;29;20064;-65
2023/11/30 12:00:20;;;;;;;13.27;8.70;;;4.40;99.90;;;;;;4915484;29;20125;-65
2023/11/30 12:02:47;;;;;;;10.25;7.00;;;4.50;99.90;;;;;;4914292;29;20044;-66
2023/11/30 12:05:14;;;;;;;11.40;7.32;;;4.50;99.90;;;;;;4915275;29;20020;-66
2023/11/30 12:08:07;;;;;;;11.75;7.85;;;4.50;99.90;;;;;;4914558;29;20083;-66
2023/11/30 12:10:40;;;;;;;11.02;7.32;;;4.60;99.90;;;;;;4879278;29;20438;-66
2023/11/30 12:13:07;;;;;;;10.10;6.93;;;4.60;99.90;;;;;;4915343;29;20039;-66
2023/11/30 12:15:33;;;;;;;9.82;6.97;;;4.60;99.90;;;;;;4913668;29;20032;-65
2023/11/30 12:18:03;;;;;;;11.07;7.25;;;4.60;99.90;;;;;;4914726;29;20095;-65
2023/11/30 12:20:30;;;;;;;14.73;7.32;;;4.50;99.90;;;;;;4914075;29;20119;-66
2023/11/30 12:22:56;;;;;;;13.07;6.88;;;4.50;99.90;;;;;;4914980;29;20044;-66
2023/11/30 12:25:24;;;;;;;9.93;6.82;;;4.50;99.90;;;;;;4915065;29;20061;-66
2023/11/30 12:27:50;;;;;;;10.20;6.07;;;4.50;99.90;;;;;;4914172;29;20107;-66
2023/11/30 12:30:16;;;;;;;9.85;6.85;;;4.40;99.90;;;;;;4915113;29;20469;-65
2023/11/30 12:32:42;;;;;;;10.45;6.80;;;4.40;99.90;;;;;;4914042;29;20357;-65
2023/11/30 12:35:08;;;;;;;10.88;7.38;;;4.40;99.90;;;;;;4915231;29;20100;-65
2023/11/30 12:37:35;;;;;;;17.02;7.47;;;4.30;99.90;;;;;;4913391;29;20059;-65
2023/11/30 12:40:02;;;;;;;12.52;7.05;;;4.20;99.90;;;;;;4914721;29;20087;-65
2023/11/30 12:42:28;;;;;;;11.98;7.18;;;4.20;99.90;;;;;;4913812;29;20036;-65
2023/11/30 12:44:53;;;;;;;9.55;7.35;;;4.10;99.90;;;;;;4914924;29;20021;-65
2023/11/30 12:47:19;;;;;;;9.13;6.53;;;4.10;99.90;;;;;;4913997;29;20039;-65
2023/11/30 12:49:47;;;;;;;9.30;6.70;;;4.10;99.90;;;;;;4914378;29;20036;-66
2023/11/30 12:52:13;;;;;;;12.40;7.10;;;4.10;99.90;;;;;;4914147;29;20536;-65
2023/11/30 12:54:39;;;;;;;10.15;6.68;;;4.10;99.90;;;;;;4914404;29;20028;-65
2023/11/30 12:57:05;;;;;;;10.82;6.88;;;4.10;99.90;;;;;;4914062;29;20036;-65
2023/11/30 12:59:31;;;;;;;10.57;6.85;;;4.10;99.90;;;;;;4913821;29;20471;-66